sensor_id;sensor_type;location;lat;lon;timestamp;temperature;humidity
7216;DHT22;3649;48.798;9.798;2022-07-21T00:01:51;24.00;99.90
7216;DHT22;3649;48.798;9.798;2022-07-21T00:04:20;24.10;99.90
7216;DHT22;3649;48.798;9.798;2022-07-21T00:06:48;24.10;99.90
7216;DHT22;3649;48.798;9.798;2022-07-21T00:09:16;24.10;99.90
7216;DHT22;3649;48.798;9.798;2022-07-21T00:11:43;24.00;99.90
7216;DHT22;3649;48.798;9.798;2022-07-21T00:14:10;24.00;99.90
7216;DHT22;3649;48.798;9.798;2022-07-21T00:16:39;24.00;99.90
7216;DHT22;3649;48.798;9.798;2022-07-21T00:19:07;24.10;99.90
7216;DHT22;3649;48.798;9.798;2022-07-21T00:21:35;24.10;99.90
7216;DHT22;3649;48.798;9.798;2022-07-21T00:24:03;24.10;99.90
7216;DHT22;3649;48.798;9.798;2022-07-21T00:26:30;24.10;99.90
7216;DHT22;3649;48.798;9.798;2022-07-21T00:28:57;24.10;99.90
7216;DHT22;3649;48.798;9.798;2022-07-21T00:31:24;24.10;99.90
7216;DHT22;3649;48.798;9.798;2022-07-21T00:33:51;24.10;99.90
7216;DHT22;3649;48.798;9.798;2022-07-21T00:36:19;24.10;99.90
7216;DHT22;3649;48.798;9.798;2022-07-21T00:38:46;24.10;99.90
7216;DHT22;3649;48.798;9.798;2022-07-21T00:41:14;24.10;99.90
7216;DHT22;3649;48.798;9.798;2022-07-21T00:43:40;24.10;99.90
7216;DHT22;3649;48.798;9.798;2022-07-21T00:46:07;24.10;99.90
7216;DHT22;3649;48.798;9.798;2022-07-21T00:48:34;24.10;99.90
7216;DHT22;3649;48.798;9.798;2022-07-21T00:51:02;24.10;99.90
7216;DHT22;3649;48.798;9.798;2022-07-21T00:53:29;24.10;99.90
7216;DHT22;3649;48.798;9.798;2022-07-21T00:55:55;24.10;99.90
7216;DHT22;3649;48.798;9.798;2022-07-21T00:58:24;24.10;99.90
7216;DHT22;3649;48.798;9.798;2022-07-21T01:00:51;24.10;99.90
7216;DHT22;3649;48.798;9.798;2022-07-21T01:03:18;24.10;99.90
7216;DHT22;3649;48.798;9.798;2022-07-21T01:05:44;24.00;99.90
7216;DHT22;3649;48.798;9.798;2022-07-21T01:08:12;24.10;99.90
7216;DHT22;3649;48.798;9.798;2022-07-21T01:10:39;24.10;99.90
7216;DHT22;3649;48.798;9.798;2022-07-21T01:13:06;24.10;99.90
7216;DHT22;3649;48.798;9.798;2022-07-21T01:15:34;24.10;99.90
7216;DHT22;3649;48.798;9.798;2022-07-21T01:18:01;24.10;99.90
7216;DHT22;3649;48.798;9.798;2022-07-21T01:20:32;24.10;99.90
7216;DHT22;3649;48.798;9.798;2022-07-21T01:23:01;24.10;99.90
7216;DHT22;3649;48.798;9.798;2022-07-21T01:25:28;24.00;99.90
7216;DHT22;3649;48.798;9.798;2022-07-21T01:27:55;24.00;99.90
7216;DHT22;3649;48.798;9.798;2022-07-21T01:30:22;24.10;99.90
7216;DHT22;3649;48.798;9.798;2022-07-21T01:32:49;24.10;99.90
7216;DHT22;3649;48.798;9.798;2022-07-21T01:35:16;24.10;99.90
7216;DHT22;3649;48.798;9.798;2022-07-21T01:37:45;24.10;99.90
7216;DHT22;3649;48.798;9.798;2022-07-21T01:40:13;23.90;99.90
7216;DHT22;3649;48.798;9.798;2022-07-21T01:42:59;23.90;99.90
7216;DHT22;3649;48.798;9.798;2022-07-21T01:45:27;23.90;99.90
7216;DHT22;3649;48.798;9.798;2022-07-21T01:47:54;24.00;99.90
7216;DHT22;3649;48.798;9.798;2022-07-21T01:50:21;24.00;99.90
7216;DHT22;3649;48.798;9.798;2022-07-21T01:52:55;24.00;99.90
7216;DHT22;3649;48.798;9.798;2022-07-21T01:55:23;24.00;99.90
7216;DHT22;3649;48.798;9.798;2022-07-21T01:57:50;24.00;99.90
7216;DHT22;3649;48.798;9.798;2022-07-21T02:00:18;24.10;99.90
7216;DHT22;3649;48.798;9.798;2022-07-21T02:02:45;24.10;99.90
7216;DHT22;3649;48.798;9.798;2022-07-21T02:05:12;24.10;99.90
7216;DHT22;3649;48.798;9.798;2022-07-21T02:07:39;24.20;99.90
7216;DHT22;3649;48.798;9.798;2022-07-21T02:10:06;24.20;99.90
7216;DHT22;3649;48.798;9.798;2022-07-21T02:12:33;24.10;99.90
7216;DHT22;3649;48.798;9.798;2022-07-21T02:15:00;24.10;99.90
7216;DHT22;3649;48.798;9.798;2022-07-21T02:17:26;24.10;99.90
7216;DHT22;3649;48.798;9.798;2022-07-21T02:19:53;24.10;99.90
7216;DHT22;3649;48.798;9.798;2022-07-21T02:22:20;24.10;99.90
7216;DHT22;3649;48.798;9.798;2022-07-21T02:24:47;24.10;99.90
7216;DHT22;3649;48.798;9.798;2022-07-21T02:27:14;24.10;99.90
7216;DHT22;3649;48.798;9.798;2022-07-21T02:29:42;24.00;99.90
7216;DHT22;3649;48.798;9.798;2022-07-21T02:32:09;24.00;99.90
7216;DHT22;3649;48.798;9.798;2022-07-21T02:34:35;24.10;99.90
7216;DHT22;3649;48.798;9.798;2022-07-21T02:37:02;24.10;99.90
7216;DHT22;3649;48.798;9.798;2022-07-21T02:39:29;24.10;99.90
7216;DHT22;3649;48.798;9.798;2022-07-21T02:41:56;24.10;99.90
7216;DHT22;3649;48.798;9.798;2022-07-21T02:44:23;24.00;99.90
7216;DHT22;3649;48.798;9.798;2022-07-21T02:46:50;23.90;99.90
7216;DHT22;3649;48.798;9.798;2022-07-21T02:49:17;23.90;99.90
7216;DHT22;3649;48.798;9.798;2022-07-21T02:51:43;23.90;99.90
7216;DHT22;3649;48.798;9.798;2022-07-21T02:54:11;23.80;99.90
7216;DHT22;3649;48.798;9.798;2022-07-21T02:56:37;23.80;99.90
7216;DHT22;3649;48.798;9.798;2022-07-21T02:59:05;23.80;99.90
7216;DHT22;3649;48.798;9.798;2022-07-21T03:01:32;23.80;99.90
7216;DHT22;3649;48.798;9.798;2022-07-21T03:03:59;23.80;99.90
7216;DHT22;3649;48.798;9.798;2022-07-21T03:06:26;23.70;99.90
7216;DHT22;3649;48.798;9.798;2022-07-21T03:08:53;23.70;99.90
7216;DHT22;3649;48.798;9.798;2022-07-21T03:11:20;23.70;99.90
7216;DHT22;3649;48.798;9.798;2022-07-21T03:13:47;23.70;99.90
7216;DHT22;3649;48.798;9.798;2022-07-21T03:16:14;23.70;99.90
7216;DHT22;3649;48.798;9.798;2022-07-21T03:18:41;23.70;99.90
7216;DHT22;3649;48.798;9.798;2022-07-21T03:21:08;23.70;99.90
7216;DHT22;3649;48.798;9.798;2022-07-21T03:23:35;23.80;99.90
7216;DHT22;3649;48.798;9.798;2022-07-21T03:26:02;23.80;99.90
7216;DHT22;3649;48.798;9.798;2022-07-21T03:28:29;25.10;99.90
7216;DHT22;3649;48.798;9.798;2022-07-21T03:30:56;23.90;99.90
7216;DHT22;3649;48.798;9.798;2022-07-21T03:33:23;23.90;99.90
7216;DHT22;3649;48.798;9.798;2022-07-21T03:35:50;23.90;99.90
7216;DHT22;3649;48.798;9.798;2022-07-21T03:38:17;23.90;99.90
7216;DHT22;3649;48.798;9.798;2022-07-21T03:40:44;24.00;99.90
7216;DHT22;3649;48.798;9.798;2022-07-21T03:43:11;24.00;99.90
7216;DHT22;3649;48.798;9.798;2022-07-21T03:45:38;24.00;99.90
7216;DHT22;3649;48.798;9.798;2022-07-21T03:48:06;24.10;99.90
7216;DHT22;3649;48.798;9.798;2022-07-21T03:50:34;24.10;99.90
7216;DHT22;3649;48.798;9.798;2022-07-21T03:53:02;24.10;99.90
7216;DHT22;3649;48.798;9.798;2022-07-21T03:55:29;24.10;99.90
7216;DHT22;3649;48.798;9.798;2022-07-21T03:57:59;24.10;99.90
7216;DHT22;3649;48.798;9.798;2022-07-21T04:00:37;24.20;99.90
7216;DHT22;3649;48.798;9.798;2022-07-21T04:03:05;24.20;99.90
7216;DHT22;3649;48.798;9.798;2022-07-21T04:05:33;24.20;99.90
7216;DHT22;3649;48.798;9.798;2022-07-21T04:08:01;24.20;99.90
7216;DHT22;3649;48.798;9.798;2022-07-21T04:10:31;24.20;99.90
7216;DHT22;3649;48.798;9.798;2022-07-21T04:13:00;24.20;99.90
7216;DHT22;3649;48.798;9.798;2022-07-21T04:15:28;24.20;99.90
7216;DHT22;3649;48.798;9.798;2022-07-21T04:17:56;24.10;99.90
7216;DHT22;3649;48.798;9.798;2022-07-21T04:20:23;24.10;99.90
7216;DHT22;3649;48.798;9.798;2022-07-21T04:22:50;24.10;99.90
7216;DHT22;3649;48.798;9.798;2022-07-21T04:25:18;24.10;99.90
7216;DHT22;3649;48.798;9.798;2022-07-21T04:27:46;24.20;99.90
7216;DHT22;3649;48.798;9.798;2022-07-21T04:30:16;24.10;99.90
7216;DHT22;3649;48.798;9.798;2022-07-21T04:32:43;24.10;99.90
7216;DHT22;3649;48.798;9.798;2022-07-21T04:35:11;24.10;99.90
7216;DHT22;3649;48.798;9.798;2022-07-21T04:37:38;24.10;99.90
7216;DHT22;3649;48.798;9.798;2022-07-21T04:40:06;24.10;99.90
7216;DHT22;3649;48.798;9.798;2022-07-21T04:42:34;24.10;99.90
7216;DHT22;3649;48.798;9.798;2022-07-21T04:45:01;24.10;99.90
7216;DHT22;3649;48.798;9.798;2022-07-21T04:47:28;24.10;99.90
7216;DHT22;3649;48.798;9.798;2022-07-21T04:49:55;24.10;99.90
7216;DHT22;3649;48.798;9.798;2022-07-21T04:52:22;24.10;99.90
7216;DHT22;3649;48.798;9.798;2022-07-21T04:54:49;24.10;99.90
7216;DHT22;3649;48.798;9.798;2022-07-21T04:57:16;24.20;99.90
7216;DHT22;3649;48.798;9.798;2022-07-21T04:59:43;24.20;99.90
7216;DHT22;3649;48.798;9.798;2022-07-21T05:02:10;24.20;99.90
7216;DHT22;3649;48.798;9.798;2022-07-21T05:04:37;24.20;99.90
7216;DHT22;3649;48.798;9.798;2022-07-21T05:07:04;24.20;99.90
7216;DHT22;3649;48.798;9.798;2022-07-21T05:09:31;24.20;99.90
7216;DHT22;3649;48.798;9.798;2022-07-21T05:11:58;24.20;99.90
7216;DHT22;3649;48.798;9.798;2022-07-21T05:14:25;24.10;99.90
7216;DHT22;3649;48.798;9.798;2022-07-21T05:16:52;24.10;99.90
7216;DHT22;3649;48.798;9.798;2022-07-21T05:19:19;24.10;99.90
7216;DHT22;3649;48.798;9.798;2022-07-21T05:21:45;24.10;99.90
7216;DHT22;3649;48.798;9.798;2022-07-21T05:24:13;24.10;99.90
7216;DHT22;3649;48.798;9.798;2022-07-21T05:26:41;24.20;99.90
7216;DHT22;3649;48.798;9.798;2022-07-21T05:29:08;24.30;99.90
7216;DHT22;3649;48.798;9.798;2022-07-21T05:31:35;24.30;99.90
7216;DHT22;3649;48.798;9.798;2022-07-21T05:34:02;24.30;99.90
7216;DHT22;3649;48.798;9.798;2022-07-21T05:36:29;24.30;99.90
7216;DHT22;3649;48.798;9.798;2022-07-21T05:38:56;24.30;99.90
7216;DHT22;3649;48.798;9.798;2022-07-21T05:41:23;24.30;99.90
7216;DHT22;3649;48.798;9.798;2022-07-21T05:43:50;24.30;99.90
7216;DHT22;3649;48.798;9.798;2022-07-21T05:46:17;24.30;99.90
7216;DHT22;3649;48.798;9.798;2022-07-21T05:48:44;24.30;99.90
7216;DHT22;3649;48.798;9.798;2022-07-21T05:51:11;24.30;99.90
7216;DHT22;3649;48.798;9.798;2022-07-21T05:53:44;24.30;99.90
7216;DHT22;3649;48.798;9.798;2022-07-21T05:56:11;24.30;99.90
7216;DHT22;3649;48.798;9.798;2022-07-21T05:58:38;24.30;99.90
7216;DHT22;3649;48.798;9.798;2022-07-21T06:01:05;24.30;99.90
7216;DHT22;3649;48.798;9.798;2022-07-21T06:03:46;24.40;99.90
7216;DHT22;3649;48.798;9.798;2022-07-21T06:06:16;24.40;99.90
7216;DHT22;3649;48.798;9.798;2022-07-21T06:08:45;24.50;99.90
7216;DHT22;3649;48.798;9.798;2022-07-21T06:11:14;24.50;99.90
7216;DHT22;3649;48.798;9.798;2022-07-21T06:13:41;24.50;99.90
7216;DHT22;3649;48.798;9.798;2022-07-21T06:16:08;25.20;99.90
7216;DHT22;3649;48.798;9.798;2022-07-21T06:18:36;24.40;99.90
7216;DHT22;3649;48.798;9.798;2022-07-21T06:21:03;24.50;99.90
7216;DHT22;3649;48.798;9.798;2022-07-21T06:23:30;24.50;99.90
7216;DHT22;3649;48.798;9.798;2022-07-21T06:25:57;24.60;99.90
7216;DHT22;3649;48.798;9.798;2022-07-21T06:28:24;24.60;99.90
7216;DHT22;3649;48.798;9.798;2022-07-21T06:30:51;24.60;99.90
7216;DHT22;3649;48.798;9.798;2022-07-21T06:33:18;24.70;99.90
7216;DHT22;3649;48.798;9.798;2022-07-21T06:35:45;24.70;99.90
7216;DHT22;3649;48.798;9.798;2022-07-21T06:38:12;24.70;99.90
7216;DHT22;3649;48.798;9.798;2022-07-21T06:40:40;24.80;99.90
7216;DHT22;3649;48.798;9.798;2022-07-21T06:43:09;24.60;99.90
7216;DHT22;3649;48.798;9.798;2022-07-21T06:45:55;24.70;99.90
7216;DHT22;3649;48.798;9.798;2022-07-21T06:48:23;24.80;99.90
7216;DHT22;3649;48.798;9.798;2022-07-21T06:50:52;24.90;99.90
7216;DHT22;3649;48.798;9.798;2022-07-21T06:53:20;24.90;99.90
7216;DHT22;3649;48.798;9.798;2022-07-21T06:55:47;25.00;99.90
7216;DHT22;3649;48.798;9.798;2022-07-21T06:58:18;25.10;99.90
7216;DHT22;3649;48.798;9.798;2022-07-21T07:00:46;25.20;99.90
7216;DHT22;3649;48.798;9.798;2022-07-21T07:03:14;25.30;99.90
7216;DHT22;3649;48.798;9.798;2022-07-21T07:05:44;25.40;99.90
7216;DHT22;3649;48.798;9.798;2022-07-21T07:08:12;25.40;99.90
7216;DHT22;3649;48.798;9.798;2022-07-21T07:10:40;25.40;99.90
7216;DHT22;3649;48.798;9.798;2022-07-21T07:13:07;25.40;99.90
7216;DHT22;3649;48.798;9.798;2022-07-21T07:15:54;25.30;99.90
7216;DHT22;3649;48.798;9.798;2022-07-21T07:18:21;25.30;99.90
7216;DHT22;3649;48.798;9.798;2022-07-21T07:20:51;25.30;99.90
7216;DHT22;3649;48.798;9.798;2022-07-21T07:23:19;25.40;99.90
7216;DHT22;3649;48.798;9.798;2022-07-21T07:25:46;25.50;99.90
7216;DHT22;3649;48.798;9.798;2022-07-21T07:28:13;25.50;99.90
7216;DHT22;3649;48.798;9.798;2022-07-21T07:30:40;25.60;99.90
7216;DHT22;3649;48.798;9.798;2022-07-21T07:33:07;25.70;99.90
7216;DHT22;3649;48.798;9.798;2022-07-21T07:35:34;25.70;99.90
7216;DHT22;3649;48.798;9.798;2022-07-21T07:38:01;25.80;99.90
7216;DHT22;3649;48.798;9.798;2022-07-21T07:40:28;25.90;99.90
7216;DHT22;3649;48.798;9.798;2022-07-21T07:42:56;25.90;99.90
7216;DHT22;3649;48.798;9.798;2022-07-21T07:45:30;25.90;99.90
7216;DHT22;3649;48.798;9.798;2022-07-21T07:47:57;25.90;99.90
7216;DHT22;3649;48.798;9.798;2022-07-21T07:50:24;25.90;99.90
7216;DHT22;3649;48.798;9.798;2022-07-21T07:52:51;25.90;99.90
7216;DHT22;3649;48.798;9.798;2022-07-21T07:55:18;25.90;99.90
7216;DHT22;3649;48.798;9.798;2022-07-21T07:57:45;25.90;99.90
7216;DHT22;3649;48.798;9.798;2022-07-21T08:00:16;25.90;99.90
7216;DHT22;3649;48.798;9.798;2022-07-21T08:03:03;25.90;99.90
7216;DHT22;3649;48.798;9.798;2022-07-21T08:05:30;26.00;99.90
7216;DHT22;3649;48.798;9.798;2022-07-21T08:07:57;26.10;99.90
7216;DHT22;3649;48.798;9.798;2022-07-21T08:10:24;26.30;99.90
7216;DHT22;3649;48.798;9.798;2022-07-21T08:13:11;26.40;99.90
7216;DHT22;3649;48.798;9.798;2022-07-21T08:15:38;26.50;99.90
7216;DHT22;3649;48.798;9.798;2022-07-21T08:18:06;26.50;99.90
7216;DHT22;3649;48.798;9.798;2022-07-21T08:20:34;26.60;99.90
7216;DHT22;3649;48.798;9.798;2022-07-21T08:23:02;26.60;99.90
7216;DHT22;3649;48.798;9.798;2022-07-21T08:25:29;26.70;99.90
7216;DHT22;3649;48.798;9.798;2022-07-21T08:27:56;26.80;99.90
7216;DHT22;3649;48.798;9.798;2022-07-21T08:30:24;26.80;99.90
7216;DHT22;3649;48.798;9.798;2022-07-21T08:32:57;26.80;99.90
7216;DHT22;3649;48.798;9.798;2022-07-21T08:35:24;26.70;99.90
7216;DHT22;3649;48.798;9.798;2022-07-21T08:37:56;26.60;99.90
7216;DHT22;3649;48.798;9.798;2022-07-21T08:40:24;26.60;99.90
7216;DHT22;3649;48.798;9.798;2022-07-21T08:42:52;26.60;99.90
7216;DHT22;3649;48.798;9.798;2022-07-21T08:45:22;26.60;99.90
7216;DHT22;3649;48.798;9.798;2022-07-21T08:47:52;26.60;99.90
7216;DHT22;3649;48.798;9.798;2022-07-21T08:50:22;26.70;99.90
7216;DHT22;3649;48.798;9.798;2022-07-21T08:52:50;26.60;99.90
7216;DHT22;3649;48.798;9.798;2022-07-21T08:55:27;26.70;99.90
7216;DHT22;3649;48.798;9.798;2022-07-21T08:57:54;26.70;99.90
7216;DHT22;3649;48.798;9.798;2022-07-21T09:00:21;26.70;99.90
7216;DHT22;3649;48.798;9.798;2022-07-21T09:02:48;26.80;99.90
7216;DHT22;3649;48.798;9.798;2022-07-21T09:05:15;26.90;99.90
7216;DHT22;3649;48.798;9.798;2022-07-21T09:07:49;26.90;99.90
7216;DHT22;3649;48.798;9.798;2022-07-21T09:10:21;27.00;99.90
7216;DHT22;3649;48.798;9.798;2022-07-21T09:12:57;27.00;99.90
7216;DHT22;3649;48.798;9.798;2022-07-21T09:15:27;27.00;99.90
7216;DHT22;3649;48.798;9.798;2022-07-21T09:20:48;26.90;99.90
7216;DHT22;3649;48.798;9.798;2022-07-21T09:23:17;26.80;99.90
7216;DHT22;3649;48.798;9.798;2022-07-21T09:25:50;26.80;99.90
7216;DHT22;3649;48.798;9.798;2022-07-21T09:28:23;26.70;99.90
7216;DHT22;3649;48.798;9.798;2022-07-21T09:31:00;26.70;99.90
7216;DHT22;3649;48.798;9.798;2022-07-21T09:38:35;26.60;99.90
7216;DHT22;3649;48.798;9.798;2022-07-21T09:41:08;26.50;99.90
7216;DHT22;3649;48.798;9.798;2022-07-21T09:43:45;26.50;99.90
7216;DHT22;3649;48.798;9.798;2022-07-21T09:48:43;26.50;99.90
7216;DHT22;3649;48.798;9.798;2022-07-21T09:51:25;26.40;99.90
7216;DHT22;3649;48.798;9.798;2022-07-21T09:53:55;26.50;99.90
7216;DHT22;3649;48.798;9.798;2022-07-21T09:56:24;26.50;99.90
7216;DHT22;3649;48.798;9.798;2022-07-21T09:58:52;26.60;99.90
7216;DHT22;3649;48.798;9.798;2022-07-21T10:01:21;26.70;99.90
7216;DHT22;3649;48.798;9.798;2022-07-21T10:03:50;26.70;99.90
7216;DHT22;3649;48.798;9.798;2022-07-21T10:06:20;26.70;99.90
7216;DHT22;3649;48.798;9.798;2022-07-21T10:08:47;26.70;99.90
7216;DHT22;3649;48.798;9.798;2022-07-21T10:11:16;26.80;99.90
7216;DHT22;3649;48.798;9.798;2022-07-21T10:13:45;26.80;99.90
7216;DHT22;3649;48.798;9.798;2022-07-21T10:16:13;26.70;99.90
7216;DHT22;3649;48.798;9.798;2022-07-21T10:21:26;26.70;99.90
7216;DHT22;3649;48.798;9.798;2022-07-21T10:23:56;26.70;99.90
7216;DHT22;3649;48.798;9.798;2022-07-21T10:26:23;26.80;99.90
7216;DHT22;3649;48.798;9.798;2022-07-21T10:28:50;26.90;99.90
7216;DHT22;3649;48.798;9.798;2022-07-21T10:31:24;26.90;99.90
7216;DHT22;3649;48.798;9.798;2022-07-21T10:33:58;26.90;99.90
7216;DHT22;3649;48.798;9.798;2022-07-21T10:41:46;26.90;99.90
7216;DHT22;3649;48.798;9.798;2022-07-21T10:47:08;27.00;99.90
7216;DHT22;3649;48.798;9.798;2022-07-21T10:55:16;27.00;99.90
7216;DHT22;3649;48.798;9.798;2022-07-21T11:00:58;27.00;99.90
7216;DHT22;3649;48.798;9.798;2022-07-21T11:03:39;27.00;99.90
7216;DHT22;3649;48.798;9.798;2022-07-21T11:08:50;27.00;99.90
7216;DHT22;3649;48.798;9.798;2022-07-21T11:11:26;26.90;99.90
7216;DHT22;3649;48.798;9.798;2022-07-21T11:22:23;27.00;99.90
7216;DHT22;3649;48.798;9.798;2022-07-21T11:24:59;27.10;99.90
7216;DHT22;3649;48.798;9.798;2022-07-21T11:27:31;27.10;99.90
7216;DHT22;3649;48.798;9.798;2022-07-21T11:29:59;27.10;99.90
7216;DHT22;3649;48.798;9.798;2022-07-21T11:32:27;27.00;99.90
7216;DHT22;3649;48.798;9.798;2022-07-21T11:34:57;27.00;99.90
7216;DHT22;3649;48.798;9.798;2022-07-21T11:37:41;27.00;99.90
7216;DHT22;3649;48.798;9.798;2022-07-21T11:40:18;27.10;99.90
7216;DHT22;3649;48.798;9.798;2022-07-21T11:42:47;27.10;99.90
7216;DHT22;3649;48.798;9.798;2022-07-21T11:45:17;27.10;99.90
7216;DHT22;3649;48.798;9.798;2022-07-21T11:47:48;27.10;99.90
7216;DHT22;3649;48.798;9.798;2022-07-21T11:50:18;27.10;99.90
7216;DHT22;3649;48.798;9.798;2022-07-21T11:52:45;27.10;99.90
7216;DHT22;3649;48.798;9.798;2022-07-21T11:55:12;27.10;99.90
7216;DHT22;3649;48.798;9.798;2022-07-21T11:57:43;27.10;99.90
7216;DHT22;3649;48.798;9.798;2022-07-21T12:00:13;27.20;99.90
7216;DHT22;3649;48.798;9.798;2022-07-21T12:02:43;27.20;99.90
7216;DHT22;3649;48.798;9.798;2022-07-21T12:05:10;27.20;99.90
7216;DHT22;3649;48.798;9.798;2022-07-21T12:07:43;27.10;99.90
7216;DHT22;3649;48.798;9.798;2022-07-21T12:10:21;27.10;99.90
7216;DHT22;3649;48.798;9.798;2022-07-21T12:12:49;27.10;99.90
7216;DHT22;3649;48.798;9.798;2022-07-21T12:15:25;27.10;99.90
7216;DHT22;3649;48.798;9.798;2022-07-21T12:18:00;27.20;99.90
7216;DHT22;3649;48.798;9.798;2022-07-21T12:20:30;27.20;99.90
7216;DHT22;3649;48.798;9.798;2022-07-21T12:23:48;27.10;99.90
7216;DHT22;3649;48.798;9.798;2022-07-21T12:25:51;27.20;99.90
7216;DHT22;3649;48.798;9.798;2022-07-21T12:28:50;27.10;99.90
7216;DHT22;3649;48.798;9.798;2022-07-21T12:31:21;27.20;99.90
7216;DHT22;3649;48.798;9.798;2022-07-21T12:33:52;27.20;99.90
7216;DHT22;3649;48.798;9.798;2022-07-21T12:36:43;27.40;99.90
7216;DHT22;3649;48.798;9.798;2022-07-21T12:39:20;27.50;99.90
7216;DHT22;3649;48.798;9.798;2022-07-21T12:42:09;27.60;99.90
7216;DHT22;3649;48.798;9.798;2022-07-21T12:44:36;27.60;99.90
7216;DHT22;3649;48.798;9.798;2022-07-21T12:47:33;27.70;99.90
7216;DHT22;3649;48.798;9.798;2022-07-21T12:50:05;27.80;99.90
7216;DHT22;3649;48.798;9.798;2022-07-21T12:52:41;27.90;99.90
7216;DHT22;3649;48.798;9.798;2022-07-21T12:55:09;27.90;99.90
7216;DHT22;3649;48.798;9.798;2022-07-21T12:57:36;27.90;99.90
7216;DHT22;3649;48.798;9.798;2022-07-21T13:00:04;28.00;99.90
7216;DHT22;3649;48.798;9.798;2022-07-21T13:02:45;28.00;99.90
7216;DHT22;3649;48.798;9.798;2022-07-21T13:05:13;28.00;99.90
7216;DHT22;3649;48.798;9.798;2022-07-21T13:07:40;28.10;99.90
7216;DHT22;3649;48.798;9.798;2022-07-21T13:10:07;28.10;99.90
7216;DHT22;3649;48.798;9.798;2022-07-21T13:12:34;28.00;99.90
7216;DHT22;3649;48.798;9.798;2022-07-21T13:15:02;28.10;99.90
7216;DHT22;3649;48.798;9.798;2022-07-21T13:17:30;28.20;99.90
7216;DHT22;3649;48.798;9.798;2022-07-21T13:19:58;28.20;99.90
7216;DHT22;3649;48.798;9.798;2022-07-21T13:22:33;28.10;99.90
7216;DHT22;3649;48.798;9.798;2022-07-21T13:25:02;28.10;99.90
7216;DHT22;3649;48.798;9.798;2022-07-21T13:27:29;28.00;99.90
7216;DHT22;3649;48.798;9.798;2022-07-21T13:29:57;28.10;99.90
7216;DHT22;3649;48.798;9.798;2022-07-21T13:32:24;28.10;99.90
7216;DHT22;3649;48.798;9.798;2022-07-21T13:34:52;28.10;99.90
7216;DHT22;3649;48.798;9.798;2022-07-21T13:37:39;28.10;99.90
7216;DHT22;3649;48.798;9.798;2022-07-21T13:40:06;28.10;99.90
7216;DHT22;3649;48.798;9.798;2022-07-21T13:42:54;28.10;99.90
7216;DHT22;3649;48.798;9.798;2022-07-21T13:45:38;28.10;99.90
7216;DHT22;3649;48.798;9.798;2022-07-21T13:48:05;28.10;99.90
7216;DHT22;3649;48.798;9.798;2022-07-21T13:50:32;28.00;99.90
7216;DHT22;3649;48.798;9.798;2022-07-21T13:52:59;28.00;99.90
7216;DHT22;3649;48.798;9.798;2022-07-21T13:55:26;28.00;99.90
7216;DHT22;3649;48.798;9.798;2022-07-21T13:57:53;28.00;99.90
7216;DHT22;3649;48.798;9.798;2022-07-21T14:00:20;28.10;99.90
7216;DHT22;3649;48.798;9.798;2022-07-21T14:02:48;28.20;99.90
7216;DHT22;3649;48.798;9.798;2022-07-21T14:05:15;28.30;99.90
7216;DHT22;3649;48.798;9.798;2022-07-21T14:07:42;28.30;99.90
7216;DHT22;3649;48.798;9.798;2022-07-21T14:10:09;28.40;99.90
7216;DHT22;3649;48.798;9.798;2022-07-21T14:12:36;28.40;99.90
7216;DHT22;3649;48.798;9.798;2022-07-21T14:15:09;28.40;99.90
7216;DHT22;3649;48.798;9.798;2022-07-21T14:17:36;28.50;99.90
7216;DHT22;3649;48.798;9.798;2022-07-21T14:20:04;28.50;99.90
7216;DHT22;3649;48.798;9.798;2022-07-21T14:22:32;28.50;99.90
7216;DHT22;3649;48.798;9.798;2022-07-21T14:24:59;28.50;99.90
7216;DHT22;3649;48.798;9.798;2022-07-21T14:27:48;28.60;99.90
7216;DHT22;3649;48.798;9.798;2022-07-21T14:30:18;28.50;99.90
7216;DHT22;3649;48.798;9.798;2022-07-21T14:32:46;28.50;99.90
7216;DHT22;3649;48.798;9.798;2022-07-21T14:35:13;28.50;99.90
7216;DHT22;3649;48.798;9.798;2022-07-21T14:37:47;28.50;99.90
7216;DHT22;3649;48.798;9.798;2022-07-21T14:40:15;28.40;99.90
7216;DHT22;3649;48.798;9.798;2022-07-21T14:42:42;28.40;99.90
7216;DHT22;3649;48.798;9.798;2022-07-21T14:45:10;28.30;99.90
7216;DHT22;3649;48.798;9.798;2022-07-21T14:47:44;28.30;99.90
7216;DHT22;3649;48.798;9.798;2022-07-21T14:50:14;28.20;99.90
7216;DHT22;3649;48.798;9.798;2022-07-21T14:52:44;28.20;99.90
7216;DHT22;3649;48.798;9.798;2022-07-21T14:55:11;28.30;99.90
7216;DHT22;3649;48.798;9.798;2022-07-21T14:57:38;28.30;99.90
7216;DHT22;3649;48.798;9.798;2022-07-21T15:00:07;28.40;99.90
7216;DHT22;3649;48.798;9.798;2022-07-21T15:02:35;28.50;99.90
7216;DHT22;3649;48.798;9.798;2022-07-21T15:05:03;28.50;99.90
7216;DHT22;3649;48.798;9.798;2022-07-21T15:07:30;28.50;99.90
7216;DHT22;3649;48.798;9.798;2022-07-21T15:09:57;28.60;99.90
7216;DHT22;3649;48.798;9.798;2022-07-21T15:12:25;28.60;99.90
7216;DHT22;3649;48.798;9.798;2022-07-21T15:14:52;28.50;99.90
7216;DHT22;3649;48.798;9.798;2022-07-21T15:17:19;28.50;99.90
7216;DHT22;3649;48.798;9.798;2022-07-21T15:19:46;28.50;99.90
7216;DHT22;3649;48.798;9.798;2022-07-21T15:22:13;28.50;99.90
7216;DHT22;3649;48.798;9.798;2022-07-21T15:24:40;28.40;99.90
7216;DHT22;3649;48.798;9.798;2022-07-21T15:27:07;28.40;99.90
7216;DHT22;3649;48.798;9.798;2022-07-21T15:29:34;28.30;99.90
7216;DHT22;3649;48.798;9.798;2022-07-21T15:32:01;28.40;99.90
7216;DHT22;3649;48.798;9.798;2022-07-21T15:34:29;28.40;99.90
7216;DHT22;3649;48.798;9.798;2022-07-21T15:36:56;28.40;99.90
7216;DHT22;3649;48.798;9.798;2022-07-21T15:39:23;28.50;99.90
7216;DHT22;3649;48.798;9.798;2022-07-21T15:41:50;28.50;99.90
7216;DHT22;3649;48.798;9.798;2022-07-21T15:44:21;28.50;99.90
7216;DHT22;3649;48.798;9.798;2022-07-21T15:46:49;28.60;99.90
7216;DHT22;3649;48.798;9.798;2022-07-21T15:49:17;28.60;99.90
7216;DHT22;3649;48.798;9.798;2022-07-21T15:51:46;28.60;99.90
7216;DHT22;3649;48.798;9.798;2022-07-21T15:54:13;28.60;99.90
7216;DHT22;3649;48.798;9.798;2022-07-21T15:57:01;28.50;99.90
7216;DHT22;3649;48.798;9.798;2022-07-21T15:59:28;28.50;99.90
7216;DHT22;3649;48.798;9.798;2022-07-21T16:02:06;28.50;99.90
7216;DHT22;3649;48.798;9.798;2022-07-21T16:04:33;28.40;99.90
7216;DHT22;3649;48.798;9.798;2022-07-21T16:07:01;28.40;99.90
7216;DHT22;3649;48.798;9.798;2022-07-21T16:09:28;28.30;99.90
7216;DHT22;3649;48.798;9.798;2022-07-21T16:11:56;28.20;99.90
7216;DHT22;3649;48.798;9.798;2022-07-21T16:14:23;28.20;99.90
7216;DHT22;3649;48.798;9.798;2022-07-21T16:16:51;28.20;99.90
7216;DHT22;3649;48.798;9.798;2022-07-21T16:19:19;28.30;99.90
7216;DHT22;3649;48.798;9.798;2022-07-21T16:21:48;28.40;99.90
7216;DHT22;3649;48.798;9.798;2022-07-21T16:24:15;28.40;99.90
7216;DHT22;3649;48.798;9.798;2022-07-21T16:26:43;28.30;99.90
7216;DHT22;3649;48.798;9.798;2022-07-21T16:29:11;28.30;99.90
7216;DHT22;3649;48.798;9.798;2022-07-21T16:31:39;28.30;99.90
7216;DHT22;3649;48.798;9.798;2022-07-21T16:34:06;28.30;99.90
7216;DHT22;3649;48.798;9.798;2022-07-21T16:36:34;28.20;99.90
7216;DHT22;3649;48.798;9.798;2022-07-21T16:39:01;28.20;99.90
7216;DHT22;3649;48.798;9.798;2022-07-21T16:41:28;28.30;99.90
7216;DHT22;3649;48.798;9.798;2022-07-21T16:43:55;28.30;99.90
7216;DHT22;3649;48.798;9.798;2022-07-21T16:46:23;28.40;99.90
7216;DHT22;3649;48.798;9.798;2022-07-21T16:48:50;28.40;99.90
7216;DHT22;3649;48.798;9.798;2022-07-21T16:51:18;28.30;99.90
7216;DHT22;3649;48.798;9.798;2022-07-21T16:53:45;28.20;99.90
7216;DHT22;3649;48.798;9.798;2022-07-21T16:56:12;28.20;99.90